EKOD/ODE METAR and TAF weather

Enter ICAO airport designator
Station Type Date Time Source
EKOD METAR 2020/01/18 13:50 UTC NOAA

EKOD 181350Z 23015KT 9999 -SHRA FEW016 BKN032 BKN075 06/05 Q1015


Station Type Date Time Source
EKOD Decoded METAR 2020/01/18 13:50 UTC NOAA

Odense / Beldringe, Denmark (EKOD) 55-29N 010-20E 17M
Jan 18, 2020 - 08:50 AM EST / 2020.01.18 1350 UTC
Wind: from the SW (230 degrees) at 17 MPH (15 KT):0
Visibility: greater than 7 mile(s):0
Sky conditions: mostly cloudy
Weather: light rain showers
Temperature: 42 F (6 C)
Dew Point: 41 F (5 C)
Relative Humidity: 93%
Pressure (altimeter): 29.97 in. Hg (1015 hPa)
ob: EKOD 181350Z 23015KT 9999 -SHRA FEW016 BKN032 BKN075 06/05 Q1015
cycle: 14

Station Type Date Time Source
EKOD TAF 2015/04/20 17:00 UTC NOAA

TAF
AMD EKOD 201701Z 2017/2018 CNL

Example: see airport list